createdAt,value
2022-11-04T00:01:47.217Z,8.90
2022-11-04T00:04:18.152Z,8.63
2022-11-04T00:06:45.874Z,9.20
2022-11-04T00:09:17.868Z,8.23
2022-11-04T00:12:04.485Z,9.70
2022-11-04T00:14:33.481Z,8.70
2022-11-04T00:17:20.023Z,9.40
2022-11-04T00:20:13.456Z,8.97
2022-11-04T00:23:01.637Z,8.83
2022-11-04T00:25:47.595Z,8.30
2022-11-04T00:28:36.341Z,9.10
2022-11-04T00:31:25.181Z,8.63
2022-11-04T00:33:55.187Z,8.97
2022-11-04T00:36:24.199Z,9.23
2022-11-04T00:38:52.040Z,9.30
2022-11-04T00:41:30.164Z,10.30
2022-11-04T00:44:02.959Z,9.13
2022-11-04T00:46:33.157Z,9.83
2022-11-04T00:49:00.945Z,9.40
2022-11-04T00:51:28.671Z,8.60
2022-11-04T00:53:58.438Z,9.73
2022-11-04T00:56:25.831Z,10.33
2022-11-04T00:58:53.305Z,9.50
2022-11-04T01:01:21.246Z,9.67
2022-11-04T01:03:51.516Z,11.23
2022-11-04T01:06:20.527Z,10.73
2022-11-04T01:08:48.687Z,10.98
2022-11-04T01:11:16.988Z,11.73
2022-11-04T01:13:44.334Z,11.48
2022-11-04T01:16:13.367Z,11.77
2022-11-04T01:18:41.186Z,11.70
2022-11-04T01:21:10.921Z,9.87
2022-11-04T01:23:39.515Z,11.73
2022-11-04T01:26:16.905Z,11.48
2022-11-04T01:28:45.015Z,10.17
2022-11-04T01:31:18.756Z,10.30
2022-11-04T01:33:46.409Z,10.37
2022-11-04T01:36:14.538Z,10.73
2022-11-04T01:38:42.662Z,11.77
2022-11-04T01:41:18.744Z,11.00
2022-11-04T01:43:47.089Z,11.73
2022-11-04T01:46:38.084Z,11.83
2022-11-04T01:49:43.352Z,11.60
2022-11-04T01:52:16.581Z,10.87
2022-11-04T01:54:48.068Z,12.23
2022-11-04T01:57:23.733Z,10.57
2022-11-04T01:59:51.089Z,11.10
2022-11-04T02:02:18.881Z,11.87
2022-11-04T02:04:47.230Z,11.97
2022-11-04T02:07:14.775Z,12.77
2022-11-04T02:09:43.976Z,11.93
2022-11-04T02:14:58.605Z,11.63
2022-11-04T02:18:06.680Z,12.37
2022-11-04T02:21:11.676Z,12.53
2022-11-04T02:23:58.605Z,14.20
2022-11-04T02:27:01.200Z,14.07
2022-11-04T02:29:47.484Z,13.80
2022-11-04T02:32:26.936Z,13.60
2022-11-04T02:35:06.185Z,14.40
2022-11-04T02:37:37.653Z,13.52
2022-11-04T02:40:08.445Z,14.77
2022-11-04T02:42:44.902Z,14.03
2022-11-04T02:45:24.969Z,14.77
2022-11-04T02:47:58.153Z,14.13
2022-11-04T02:50:33.448Z,15.23
2022-11-04T02:53:18.474Z,14.97
2022-11-04T02:55:49.899Z,14.77
2022-11-04T02:58:23.896Z,14.47
2022-11-04T03:00:55.133Z,16.30
2022-11-04T03:03:28.412Z,15.33
2022-11-04T03:05:58.250Z,17.87
2022-11-04T03:08:37.001Z,15.43
2022-11-04T03:14:04.672Z,16.90
2022-11-04T03:16:40.944Z,16.97
2022-11-04T03:19:18.793Z,17.17
2022-11-04T03:22:11.941Z,17.15
2022-11-04T03:24:39.850Z,18.33
2022-11-04T03:27:26.064Z,17.92
2022-11-04T03:30:08.367Z,16.87
2022-11-04T03:33:01.972Z,16.47
2022-11-04T03:35:29.599Z,16.67
2022-11-04T03:37:57.520Z,16.77
2022-11-04T03:40:26.020Z,18.03
2022-11-04T03:42:59.406Z,16.90
2022-11-04T03:45:27.777Z,17.53
2022-11-04T03:47:57.085Z,17.50
2022-11-04T03:50:31.017Z,17.73
2022-11-04T03:53:00.341Z,18.77
2022-11-04T03:55:59.880Z,17.92
2022-11-04T03:58:58.378Z,18.03
2022-11-04T04:01:54.454Z,17.23
2022-11-04T04:04:34.317Z,16.97
2022-11-04T04:07:23.538Z,17.63
2022-11-04T04:09:58.280Z,17.87
2022-11-04T04:12:31.165Z,17.97
2022-11-04T04:15:06.821Z,19.03
2022-11-04T04:17:47.263Z,19.10
2022-11-04T04:20:18.662Z,17.87
2022-11-04T04:23:02.232Z,18.17
2022-11-04T04:25:51.458Z,19.23
2022-11-04T04:30:48.053Z,15.68
2022-11-04T04:33:18.920Z,19.07
2022-11-04T04:35:55.478Z,18.70
2022-11-04T04:38:44.238Z,18.40
2022-11-04T04:44:43.069Z,15.27
2022-11-04T04:47:22.697Z,18.27
2022-11-04T04:49:58.424Z,15.93
2022-11-04T04:52:30.715Z,15.70
2022-11-04T04:54:58.530Z,16.57
2022-11-04T04:57:26.842Z,15.15
2022-11-04T04:59:54.500Z,16.87
2022-11-04T05:02:22.007Z,17.73
2022-11-04T05:04:50.479Z,17.10
2022-11-04T05:09:12.000Z,17.30
2022-11-04T05:11:40.530Z,17.20
2022-11-04T05:14:07.933Z,17.87
2022-11-04T05:16:40.584Z,16.20
2022-11-04T05:19:09.576Z,18.87
2022-11-04T05:21:37.623Z,19.00
2022-11-04T05:24:05.703Z,17.03
2022-11-04T05:26:33.422Z,18.00
2022-11-04T05:29:01.242Z,17.90
2022-11-04T05:31:30.515Z,17.37
2022-11-04T05:34:00.069Z,19.03
2022-11-04T05:36:27.470Z,17.50
2022-11-04T05:38:57.577Z,18.50
2022-11-04T05:41:28.702Z,17.40
2022-11-04T05:44:04.010Z,17.73
2022-11-04T05:46:33.342Z,16.33
2022-11-04T05:49:00.688Z,15.53
2022-11-04T05:51:30.635Z,15.53
2022-11-04T05:53:58.425Z,17.80
2022-11-04T05:56:26.795Z,16.97
2022-11-04T05:58:54.415Z,16.62
2022-11-04T06:01:27.133Z,16.80
2022-11-04T06:03:55.447Z,16.93
2022-11-04T06:09:12.560Z,17.57
2022-11-04T06:11:40.707Z,19.73
2022-11-04T06:14:08.066Z,18.90
2022-11-04T06:16:35.654Z,20.67
2022-11-04T06:19:08.580Z,21.20
2022-11-04T06:21:39.958Z,19.50
2022-11-04T06:24:08.311Z,20.45
2022-11-04T06:26:36.347Z,19.87
2022-11-04T06:29:04.373Z,22.05
2022-11-04T06:31:32.173Z,22.77
2022-11-04T06:33:59.737Z,21.70
2022-11-04T06:36:27.510Z,22.93
2022-11-04T06:39:01.390Z,19.77
2022-11-04T06:41:32.156Z,21.90
2022-11-04T06:43:59.841Z,20.90
2022-11-04T06:46:31.968Z,21.97
2022-11-04T06:49:00.618Z,22.83
2022-11-04T06:51:28.292Z,21.75
2022-11-04T06:53:56.254Z,21.80
2022-11-04T06:56:25.352Z,22.02
2022-11-04T06:58:54.858Z,24.87
2022-11-04T07:01:24.800Z,22.70
2022-11-04T07:09:14.344Z,22.90
2022-11-04T07:11:43.624Z,24.40
2022-11-04T07:14:13.681Z,22.17
2022-11-04T07:19:08.775Z,22.77
2022-11-04T07:21:36.226Z,24.17
2022-11-04T07:24:03.829Z,24.27
2022-11-04T07:29:01.476Z,23.60
2022-11-04T07:31:28.929Z,23.17
2022-11-04T07:33:56.757Z,21.53
2022-11-04T07:36:24.405Z,22.37
2022-11-04T07:38:51.755Z,23.37
2022-11-04T07:41:20.093Z,21.90
2022-11-04T07:43:52.012Z,21.23
2022-11-04T07:46:21.593Z,22.13
2022-11-04T07:48:49.043Z,20.45
2022-11-04T07:51:19.430Z,22.57
2022-11-04T07:53:47.723Z,20.03
2022-11-04T07:56:16.213Z,20.03
2022-11-04T07:58:43.966Z,18.98
2022-11-04T08:01:16.541Z,20.30
2022-11-04T08:03:44.714Z,21.13
2022-11-04T08:06:15.385Z,20.60
2022-11-04T08:08:43.901Z,21.23
2022-11-04T08:11:18.215Z,18.98
2022-11-04T08:13:47.239Z,20.70
2022-11-04T08:16:20.386Z,20.67
2022-11-04T08:18:49.421Z,20.63
2022-11-04T08:26:18.009Z,17.35
2022-11-04T08:28:46.613Z,18.90
2022-11-04T08:31:20.326Z,21.50
2022-11-04T08:33:48.522Z,19.63
2022-11-04T08:36:24.401Z,20.13
2022-11-04T08:38:52.719Z,19.83
2022-11-04T08:41:28.274Z,19.65
2022-11-04T08:44:00.515Z,18.77
2022-11-04T08:46:29.630Z,18.30
2022-11-04T08:48:58.524Z,19.47
2022-11-04T08:51:28.931Z,18.80
2022-11-04T08:53:56.631Z,19.87
2022-11-04T08:56:30.878Z,17.43
2022-11-04T08:59:00.242Z,19.23
2022-11-04T09:01:34.324Z,18.83
2022-11-04T09:04:05.821Z,17.90
2022-11-04T09:06:37.345Z,16.63
2022-11-04T09:09:07.507Z,16.40
2022-11-04T09:11:38.687Z,18.48
2022-11-04T09:14:06.916Z,17.77
2022-11-04T09:16:35.792Z,18.77
2022-11-04T09:19:03.956Z,17.40
2022-11-04T09:21:31.635Z,17.08
2022-11-04T09:23:59.024Z,16.77
2022-11-04T09:26:27.021Z,16.23
2022-11-04T09:28:58.845Z,15.85
2022-11-04T09:31:28.625Z,15.40
2022-11-04T09:33:57.134Z,15.63
2022-11-04T09:36:25.154Z,16.52
2022-11-04T09:38:54.780Z,16.07
2022-11-04T09:42:02.040Z,15.77
2022-11-04T09:45:06.951Z,16.73
2022-11-04T09:47:34.151Z,15.37
2022-11-04T09:50:03.099Z,16.53
2022-11-04T09:52:40.098Z,16.02
2022-11-04T09:55:32.541Z,14.87
2022-11-04T09:58:00.512Z,15.97
2022-11-04T10:00:32.200Z,16.73
2022-11-04T10:03:15.761Z,16.83
2022-11-04T10:05:55.861Z,15.83
2022-11-04T10:08:37.709Z,15.00
2022-11-04T10:11:21.839Z,14.83
2022-11-04T10:14:31.385Z,14.87
2022-11-04T10:17:26.775Z,15.67
2022-11-04T10:20:13.275Z,15.03
2022-11-04T10:22:52.639Z,17.00
2022-11-04T10:25:30.147Z,15.83
2022-11-04T10:28:00.291Z,15.68
2022-11-04T10:30:29.879Z,15.52
2022-11-04T10:33:09.716Z,16.90
2022-11-04T10:35:57.399Z,16.33
2022-11-04T10:38:48.736Z,14.23
2022-11-04T10:41:38.053Z,15.97
2022-11-04T10:44:12.118Z,16.35
2022-11-04T10:46:54.554Z,14.93
2022-11-04T10:50:22.325Z,14.97
2022-11-04T10:52:42.747Z,15.23
2022-11-04T10:55:35.606Z,15.38
2022-11-04T10:58:04.179Z,14.87
2022-11-04T11:00:40.844Z,15.63
2022-11-04T11:03:33.211Z,15.27
2022-11-04T11:06:33.169Z,13.60
2022-11-04T11:09:14.584Z,14.17
2022-11-04T11:11:49.579Z,14.23
2022-11-04T11:14:36.268Z,13.73
2022-11-04T11:17:21.048Z,14.67
2022-11-04T11:19:52.997Z,15.40
2022-11-04T11:22:37.943Z,16.03
2022-11-04T11:25:25.399Z,13.73
2022-11-04T11:28:01.681Z,15.17
2022-11-04T11:30:32.837Z,15.17
2022-11-04T11:33:14.264Z,14.27
2022-11-04T11:35:50.876Z,13.93
2022-11-04T11:38:19.236Z,13.77
2022-11-04T11:41:10.857Z,13.43
2022-11-04T11:43:38.094Z,13.85
2022-11-04T11:46:06.374Z,13.80
2022-11-04T11:48:43.349Z,13.50
2022-11-04T11:51:25.196Z,13.50
2022-11-04T11:54:14.660Z,12.57
2022-11-04T12:02:58.949Z,14.45
2022-11-04T12:09:23.063Z,13.00
2022-11-04T12:12:03.189Z,12.50
2022-11-04T12:15:15.129Z,11.88
2022-11-04T12:18:22.235Z,12.50
2022-11-04T12:21:22.701Z,12.50
2022-11-04T12:24:18.494Z,11.85
2022-11-04T12:26:52.565Z,12.48
2022-11-04T12:29:37.417Z,12.80
2022-11-04T12:32:16.936Z,13.20
2022-11-04T12:35:04.174Z,13.57
2022-11-04T12:37:50.722Z,11.48
2022-11-04T12:40:28.876Z,11.87
2022-11-04T12:43:18.697Z,12.80
2022-11-04T12:45:53.097Z,12.13
2022-11-04T12:49:07.382Z,12.55
2022-11-04T12:52:14.211Z,10.77
2022-11-04T12:54:53.763Z,11.30
2022-11-04T12:57:59.821Z,12.52
2022-11-04T13:00:31.262Z,10.50
2022-11-04T13:02:58.951Z,10.93
2022-11-04T13:05:42.910Z,11.32
2022-11-04T13:08:19.890Z,11.55
2022-11-04T13:10:59.506Z,10.32
2022-11-04T13:13:34.797Z,12.45
2022-11-04T13:16:11.133Z,11.23
2022-11-04T13:18:41.464Z,11.20
2022-11-04T13:21:14.392Z,10.80
2022-11-04T13:23:58.209Z,10.20
2022-11-04T13:26:26.743Z,11.53
2022-11-04T13:29:07.472Z,11.15
2022-11-04T13:31:54.283Z,12.25
2022-11-04T13:34:51.282Z,11.67
2022-11-04T13:37:31.330Z,11.33
2022-11-04T13:40:14.029Z,11.20
2022-11-04T13:42:50.630Z,9.97
2022-11-04T13:45:20.257Z,10.98
2022-11-04T13:47:57.688Z,11.90
2022-11-04T13:50:43.619Z,11.88
2022-11-04T13:53:11.905Z,11.27
2022-11-04T13:58:45.994Z,13.20
2022-11-04T14:01:29.407Z,11.73
2022-11-04T14:04:29.630Z,12.05
2022-11-04T14:09:50.256Z,12.88
2022-11-04T14:12:26.092Z,12.30
2022-11-04T14:14:56.747Z,12.35
2022-11-04T14:17:44.635Z,11.35
2022-11-04T14:20:26.685Z,12.10
2022-11-04T14:23:02.812Z,12.32
2022-11-04T14:25:38.168Z,12.50
2022-11-04T14:28:14.985Z,11.03
2022-11-04T14:31:17.653Z,11.67
2022-11-04T14:33:58.017Z,11.47
2022-11-04T14:36:30.697Z,11.67
2022-11-04T14:39:04.575Z,12.37
2022-11-04T14:42:02.494Z,11.20
2022-11-04T14:44:49.343Z,11.57
2022-11-04T14:47:26.988Z,11.03
2022-11-04T14:50:01.738Z,11.67
2022-11-04T14:52:38.751Z,11.77
2022-11-04T14:55:17.505Z,12.93
2022-11-04T14:57:47.464Z,12.52
2022-11-04T15:00:27.388Z,13.67
2022-11-04T15:03:11.206Z,12.97
2022-11-04T15:05:54.074Z,10.50
2022-11-04T15:08:50.859Z,12.97
2022-11-04T15:11:41.493Z,11.07
2022-11-04T15:14:22.065Z,13.47
2022-11-04T15:16:59.767Z,13.63
2022-11-04T15:19:35.805Z,13.27
2022-11-04T15:22:06.676Z,11.93
2022-11-04T15:24:35.222Z,13.33
2022-11-04T15:27:06.293Z,13.52
2022-11-04T15:29:36.551Z,13.83
2022-11-04T15:32:05.524Z,14.83
2022-11-04T15:34:36.343Z,16.08
2022-11-04T15:37:06.135Z,15.77
2022-11-04T15:39:50.066Z,15.60
2022-11-04T15:42:42.755Z,15.07
2022-11-04T15:45:53.563Z,15.57
2022-11-04T15:48:29.453Z,16.93
2022-11-04T15:51:14.465Z,13.73
2022-11-04T15:53:48.482Z,17.07
2022-11-04T15:56:18.284Z,14.47
2022-11-04T15:58:46.940Z,13.63
2022-11-04T16:01:16.254Z,15.00
2022-11-04T16:03:58.717Z,13.77
2022-11-04T16:06:34.928Z,15.67
2022-11-04T16:09:19.440Z,18.23
2022-11-04T16:12:11.845Z,14.10
2022-11-04T16:14:39.613Z,15.17
2022-11-04T16:17:11.454Z,13.77
2022-11-04T16:19:38.998Z,14.47
2022-11-04T16:22:09.894Z,14.23
2022-11-04T16:24:40.928Z,12.90
2022-11-04T16:27:11.090Z,13.57
2022-11-04T16:29:41.635Z,13.83
2022-11-04T16:32:20.367Z,15.47
2022-11-04T16:34:51.452Z,14.70
2022-11-04T16:37:19.128Z,15.03
2022-11-04T16:39:46.672Z,13.83
2022-11-04T16:42:15.637Z,13.63
2022-11-04T16:44:59.272Z,11.17
2022-11-04T16:47:30.058Z,11.93
2022-11-04T16:50:02.145Z,12.63
2022-11-04T16:52:30.924Z,12.50
2022-11-04T16:57:25.929Z,11.73
2022-11-04T16:59:53.364Z,13.30
2022-11-04T17:02:28.214Z,12.77
2022-11-04T17:04:56.030Z,13.17
2022-11-04T17:07:40.521Z,13.37
2022-11-04T17:10:23.393Z,12.43
2022-11-04T17:12:51.163Z,11.73
2022-11-04T17:15:18.840Z,11.97
2022-11-04T17:17:46.656Z,13.53
2022-11-04T17:20:17.878Z,12.90
2022-11-04T17:22:47.168Z,12.53
2022-11-04T17:25:21.274Z,12.37
2022-11-04T17:27:49.617Z,12.40
2022-11-04T17:30:18.402Z,12.40
2022-11-04T17:32:46.900Z,15.73
2022-11-04T17:35:15.929Z,15.80
2022-11-04T17:37:44.199Z,16.90
2022-11-04T17:40:17.995Z,17.33
2022-11-04T17:43:10.330Z,12.10
2022-11-04T17:45:44.060Z,12.73
2022-11-04T17:48:14.472Z,14.30
2022-11-04T17:50:42.548Z,14.50
2022-11-04T17:53:10.222Z,14.60
2022-11-04T17:55:40.073Z,13.00
2022-11-04T17:58:07.576Z,13.07
2022-11-04T18:00:34.904Z,13.23
2022-11-04T18:03:02.678Z,11.40
2022-11-04T18:05:30.087Z,11.53
2022-11-04T18:07:58.666Z,13.83
2022-11-04T18:10:26.401Z,16.92
2022-11-04T18:12:53.752Z,15.97
2022-11-04T18:15:21.139Z,17.43
2022-11-04T18:17:50.961Z,15.40
2022-11-04T18:22:45.816Z,13.00
2022-11-04T18:25:13.685Z,11.83
2022-11-04T18:27:41.136Z,11.93
2022-11-04T18:30:09.236Z,12.17
2022-11-04T18:32:36.969Z,12.25
2022-11-04T18:35:04.619Z,11.77
2022-11-04T18:37:31.982Z,11.10
2022-11-04T18:39:59.604Z,10.70
2022-11-04T18:42:26.974Z,10.40
2022-11-04T18:44:55.328Z,10.43
2022-11-04T18:47:24.058Z,11.52
2022-11-04T18:49:51.566Z,11.70
2022-11-04T18:52:19.041Z,9.77
2022-11-04T18:54:46.862Z,10.73
2022-11-04T18:57:14.321Z,11.17
2022-11-04T18:59:41.781Z,12.00
2022-11-04T19:02:18.586Z,11.83
2022-11-04T19:04:46.065Z,11.57
2022-11-04T19:07:14.564Z,11.90
2022-11-04T19:09:47.132Z,12.13
2022-11-04T19:12:34.875Z,11.27
2022-11-04T19:15:04.240Z,12.63
2022-11-04T19:17:32.099Z,12.13
2022-11-04T19:19:59.511Z,12.57
2022-11-04T19:22:26.994Z,12.53
2022-11-04T19:24:54.839Z,12.90
2022-11-04T19:27:25.171Z,11.80
2022-11-04T19:29:53.147Z,13.93
2022-11-04T19:32:21.448Z,13.30
2022-11-04T19:34:50.181Z,12.70
2022-11-04T19:37:18.002Z,13.13
2022-11-04T19:39:45.722Z,11.40
2022-11-04T19:42:35.137Z,13.00
2022-11-04T19:45:02.921Z,12.13
2022-11-04T19:47:30.322Z,12.43
2022-11-04T19:49:57.730Z,11.17
2022-11-04T19:52:25.400Z,11.83
2022-11-04T19:54:52.750Z,12.47
2022-11-04T19:57:20.086Z,11.90
2022-11-04T19:59:49.135Z,11.47
2022-11-04T20:02:16.727Z,11.75
2022-11-04T20:04:46.726Z,11.60
2022-11-04T20:07:14.082Z,11.77
2022-11-04T20:09:41.550Z,11.93
2022-11-04T20:12:27.705Z,11.87
2022-11-04T20:14:56.634Z,11.60
2022-11-04T20:17:24.750Z,11.90
2022-11-04T20:19:52.451Z,12.07
2022-11-04T20:22:19.720Z,11.27
2022-11-04T20:24:47.656Z,12.43
2022-11-04T20:27:16.431Z,12.90
2022-11-04T20:29:43.853Z,12.10
2022-11-04T20:32:11.553Z,12.33
2022-11-04T20:34:40.198Z,13.23
2022-11-04T20:37:07.965Z,12.10
2022-11-04T20:39:36.486Z,11.73
2022-11-04T20:42:04.069Z,11.03
2022-11-04T20:44:31.424Z,12.87
2022-11-04T20:47:00.262Z,13.10
2022-11-04T20:49:28.791Z,12.15
2022-11-04T20:51:56.996Z,13.32
2022-11-04T20:54:24.865Z,11.75
2022-11-04T20:56:52.241Z,13.23
2022-11-04T20:59:19.698Z,14.50
2022-11-04T21:01:48.825Z,12.83
2022-11-04T21:04:20.898Z,13.88
2022-11-04T21:06:50.879Z,13.43
2022-11-04T21:09:20.489Z,13.03
2022-11-04T21:11:48.307Z,13.17
2022-11-04T21:14:19.138Z,13.33
2022-11-04T21:16:47.336Z,13.17
2022-11-04T21:19:16.191Z,15.13
2022-11-04T21:24:14.041Z,13.40
2022-11-04T21:26:42.356Z,13.60
2022-11-04T21:29:13.919Z,13.23
2022-11-04T21:31:41.933Z,14.03
2022-11-04T21:34:10.201Z,13.48
2022-11-04T21:36:38.128Z,13.53
2022-11-04T21:39:06.445Z,15.57
2022-11-04T21:41:37.283Z,15.35
2022-11-04T21:44:08.555Z,14.37
2022-11-04T21:46:37.179Z,14.87
2022-11-04T21:49:04.970Z,14.38
2022-11-04T21:51:34.525Z,13.47
2022-11-04T21:54:05.823Z,14.80
2022-11-04T21:56:33.360Z,14.70
2022-11-04T21:59:01.496Z,15.07
2022-11-04T22:01:30.554Z,15.43
2022-11-04T22:06:34.509Z,14.80
2022-11-04T22:09:05.969Z,15.80
2022-11-04T22:11:37.369Z,14.80
2022-11-04T22:14:07.557Z,14.90
2022-11-04T22:16:38.027Z,15.43
2022-11-04T22:19:08.070Z,15.30
2022-11-04T22:21:39.484Z,14.87
2022-11-04T22:24:10.239Z,14.53
2022-11-04T22:26:38.043Z,14.07
2022-11-04T22:29:05.506Z,14.27
2022-11-04T22:31:37.011Z,14.53
2022-11-04T22:34:05.089Z,15.33
2022-11-04T22:36:33.985Z,14.13
2022-11-04T22:39:01.264Z,14.98
2022-11-04T22:41:31.672Z,15.33
2022-11-04T22:43:59.645Z,14.03
2022-11-04T22:46:33.181Z,14.77
2022-11-04T22:49:00.936Z,14.63
2022-11-04T22:51:29.871Z,13.77
2022-11-04T22:56:32.345Z,15.03
2022-11-04T22:59:01.350Z,15.13
2022-11-04T23:01:28.857Z,15.80
2022-11-04T23:03:57.015Z,16.17
2022-11-04T23:06:25.135Z,15.53
2022-11-04T23:08:59.521Z,16.27
2022-11-04T23:11:48.124Z,14.57
2022-11-04T23:14:36.505Z,15.80
2022-11-04T23:17:32.102Z,15.38
2022-11-04T23:19:59.670Z,15.70
2022-11-04T23:22:45.836Z,15.57
2022-11-04T23:25:13.848Z,16.83
2022-11-04T23:28:06.583Z,15.55
2022-11-04T23:30:43.318Z,15.23
2022-11-04T23:33:14.778Z,16.23
2022-11-04T23:36:03.936Z,16.83
2022-11-04T23:38:32.761Z,16.70
2022-11-04T23:41:22.805Z,17.12
2022-11-04T23:43:50.422Z,16.93
2022-11-04T23:46:42.178Z,17.77
2022-11-04T23:49:30.333Z,18.43
2022-11-04T23:52:16.487Z,17.00
2022-11-04T23:55:02.611Z,18.07
2022-11-04T23:57:48.480Z,17.30
